Time;durP1;ratioP1;P1;durP2;ratioP2;P2;SDS_P1;SDS_P2;PMS_P1;PMS_P2;Temp;Humidity;BMP_temperature;BMP_pressure;BME280_temperature;BME280_humidity;BME280_pressure;Samples;Min_cycle;Max_cycle;Signal;HPM_P1;HPM_P2
2022/01/28 00:01:45;;;;;;;0.47;0.47;;;;;;;;;;5065213;28;20512;-68
2022/01/28 00:04:13;;;;;;;0.00;0.00;;;;;;;;;;5065577;28;20027;-68
2022/01/28 00:06:38;;;;;;;0.00;0.00;;;;;;;;;;5063559;28;20151;-68
2022/01/28 00:09:04;;;;;;;0.00;0.00;;;;;;;;;;5064026;28;20048;-69
2022/01/28 00:11:30;;;;;;;0.25;0.25;;;;;;;;;;5062031;28;20540;-69
2022/01/28 00:14:09;;;;;;;0.00;0.00;;;;;;;;;;5063306;28;20112;-69
2022/01/28 00:19:29;;;;;;;0.20;0.20;;;;;;;;;;5066507;28;20024;-69
2022/01/28 00:38:14;;;;;;;0.68;0.68;;;;;;;;;;5067843;28;20533;-69
2022/01/28 00:40:40;;;;;;;0.00;0.00;;;;;;;;;;5066871;28;20158;-69
2022/01/28 00:43:05;;;;;;;0.00;0.00;;;;;;;;;;5067808;28;20823;-68
2022/01/28 00:45:31;;;;;;;0.00;0.00;;;;;;;;;;5067767;28;20028;-68
2022/01/28 00:47:56;;;;;;;0.22;0.22;;;;;;;;;;5066583;28;20107;-68
2022/01/28 00:50:21;;;;;;;0.00;0.00;;;;;;;;;;5071755;28;20377;-69
2022/01/28 00:52:47;;;;;;;0.00;0.00;;;;;;;;;;5071796;28;20042;-68
2022/01/28 00:55:12;;;;;;;0.00;0.00;;;;;;;;;;5071963;28;20027;-68
2022/01/28 00:57:38;;;;;;;0.00;0.00;;;;;;;;;;5071928;28;20043;-68
2022/01/28 01:00:05;;;;;;;0.00;0.00;;;;;;;;;;5070497;28;20012;-68
2022/01/28 01:02:30;;;;;;;0.00;0.00;;;;;;;;;;5071979;28;20016;-67
2022/01/28 01:04:55;;;;;;;0.00;0.00;;;;;;;;;;5071420;28;20417;-69
2022/01/28 01:07:20;;;;;;;0.00;0.00;;;;;;;;;;5071887;28;20028;-66
2022/01/28 01:09:46;;;;;;;0.00;0.00;;;;;;;;;;5070384;28;20036;-68
2022/01/28 01:12:11;;;;;;;0.00;0.00;;;;;;;;;;5071860;28;20016;-68
2022/01/28 01:14:37;;;;;;;0.63;0.63;;;;;;;;;;5071554;28;20028;-67
2022/01/28 01:19:32;;;;;;;0.00;0.00;;;;;;;;;;5071930;28;20596;-68
2022/01/28 01:21:59;;;;;;;0.10;0.10;;;;;;;;;;5071250;28;20024;-68
2022/01/28 01:24:27;;;;;;;0.00;0.00;;;;;;;;;;5071000;28;20361;-67
2022/01/28 01:26:52;;;;;;;0.20;0.20;;;;;;;;;;5071126;28;20036;-66
2022/01/28 01:29:20;;;;;;;1.85;1.45;;;;;;;;;;5071572;28;20059;-68
2022/01/28 01:31:46;;;;;;;0.00;0.00;;;;;;;;;;5071414;28;20108;-68
2022/01/28 01:36:37;;;;;;;0.05;0.05;;;;;;;;;;5070930;28;20461;-68
2022/01/28 01:39:03;;;;;;;0.00;0.00;;;;;;;;;;5071188;28;20062;-68
2022/01/28 01:41:50;;;;;;;0.00;0.00;;;;;;;;;;5071358;28;20028;-68
2022/01/28 01:52:41;;;;;;;0.00;0.00;;;;;;;;;;5068969;28;20043;-68
2022/01/28 01:55:07;;;;;;;0.00;0.00;;;;;;;;;;5070886;28;20040;-68
2022/01/28 01:57:32;;;;;;;0.00;0.00;;;;;;;;;;5070719;28;20012;-68
2022/01/28 01:59:58;;;;;;;0.00;0.00;;;;;;;;;;5070029;28;20473;-68
2022/01/28 02:02:23;;;;;;;0.05;0.05;;;;;;;;;;5071094;28;20020;-66
2022/01/28 02:04:48;;;;;;;0.00;0.00;;;;;;;;;;5070501;28;20043;-68
2022/01/28 02:07:15;;;;;;;0.00;0.00;;;;;;;;;;5068846;28;20041;-67
2022/01/28 02:09:40;;;;;;;0.00;0.00;;;;;;;;;;5066921;28;20033;-68
2022/01/28 02:12:06;;;;;;;0.00;0.00;;;;;;;;;;5070828;28;20035;-67
2022/01/28 02:14:31;;;;;;;0.00;0.00;;;;;;;;;;5071161;28;20469;-67
2022/01/28 02:16:57;;;;;;;0.00;0.00;;;;;;;;;;5070378;28;20029;-67
2022/01/28 02:19:22;;;;;;;0.52;0.52;;;;;;;;;;5071076;28;20024;-69
2022/01/28 02:21:50;;;;;;;0.00;0.00;;;;;;;;;;5069181;28;20402;-70
2022/01/28 02:24:20;;;;;;;0.00;0.00;;;;;;;;;;5070719;28;20024;-68
2022/01/28 02:26:45;;;;;;;0.00;0.00;;;;;;;;;;5067988;28;20052;-69
2022/01/28 02:29:24;;;;;;;0.00;0.00;;;;;;;;;;5071597;28;20516;-69
2022/01/28 02:31:49;;;;;;;0.00;0.00;;;;;;;;;;5069816;28;20461;-69
2022/01/28 02:34:15;;;;;;;0.00;0.00;;;;;;;;;;5069783;28;20054;-69
2022/01/28 02:36:40;;;;;;;0.00;0.00;;;;;;;;;;5070279;28;20870;-70
2022/01/28 02:39:06;;;;;;;0.00;0.00;;;;;;;;;;5069932;28;20131;-69
2022/01/28 02:41:36;;;;;;;0.00;0.00;;;;;;;;;;5070054;28;20067;-69
2022/01/28 02:44:12;;;;;;;0.00;0.00;;;;;;;;;;5066423;28;20112;-70
2022/01/28 02:46:53;;;;;;;0.00;0.00;;;;;;;;;;5069690;28;20024;-68
2022/01/28 02:49:19;;;;;;;0.00;0.00;;;;;;;;;;5069827;28;20032;-68
2022/01/28 02:51:44;;;;;;;0.00;0.00;;;;;;;;;;5069384;28;20020;-69
2022/01/28 02:54:15;;;;;;;0.00;0.00;;;;;;;;;;5069238;28;20021;-68
2022/01/28 02:56:48;;;;;;;0.00;0.00;;;;;;;;;;5069516;28;20017;-68
2022/01/28 02:59:13;;;;;;;0.00;0.00;;;;;;;;;;5070216;28;20012;-70
2022/01/28 03:01:38;;;;;;;0.00;0.00;;;;;;;;;;5070190;28;20032;-70
2022/01/28 03:04:05;;;;;;;0.00;0.00;;;;;;;;;;5069015;28;20105;-71
2022/01/28 03:06:31;;;;;;;0.00;0.00;;;;;;;;;;5069858;28;20016;-70
2022/01/28 03:09:05;;;;;;;0.00;0.00;;;;;;;;;;5069368;28;20495;-68
2022/01/28 03:11:43;;;;;;;0.00;0.00;;;;;;;;;;5069031;28;20020;-68
2022/01/28 03:14:34;;;;;;;0.00;0.00;;;;;;;;;;5069745;28;20013;-68
2022/01/28 03:17:28;;;;;;;0.00;0.00;;;;;;;;;;5068163;28;20350;-68
2022/01/28 03:19:55;;;;;;;0.00;0.00;;;;;;;;;;5069435;28;20025;-68
2022/01/28 03:22:22;;;;;;;0.00;0.00;;;;;;;;;;5069252;28;20016;-69
2022/01/28 03:24:50;;;;;;;0.00;0.00;;;;;;;;;;5068713;28;20024;-68
2022/01/28 03:27:29;;;;;;;0.00;0.00;;;;;;;;;;5068915;28;20055;-69
2022/01/28 03:29:54;;;;;;;0.00;0.00;;;;;;;;;;5068703;28;20572;-70
2022/01/28 03:40:57;;;;;;;0.00;0.00;;;;;;;;;;5038796;28;20041;-67
2022/01/28 03:43:23;;;;;;;0.00;0.00;;;;;;;;;;5047886;28;20086;-68
2022/01/28 03:45:48;;;;;;;0.00;0.00;;;;;;;;;;5032953;28;20036;-67
2022/01/28 03:48:13;;;;;;;0.00;0.00;;;;;;;;;;5046597;28;20119;-67
2022/01/28 03:50:38;;;;;;;0.00;0.00;;;;;;;;;;5050107;28;20021;-67
2022/01/28 03:53:04;;;;;;;0.00;0.00;;;;;;;;;;5056774;28;20086;-68
2022/01/28 03:55:29;;;;;;;0.10;0.10;;;;;;;;;;5050347;28;20025;-69
2022/01/28 03:57:55;;;;;;;0.00;0.00;;;;;;;;;;5047594;28;20021;-70
2022/01/28 04:00:24;;;;;;;0.00;0.00;;;;;;;;;;5052013;28;20021;-69
2022/01/28 04:02:57;;;;;;;0.00;0.00;;;;;;;;;;5056941;28;20031;-69
2022/01/28 04:13:26;;;;;;;0.00;0.00;;;;;;;;;;5050292;28;20032;-69
2022/01/28 04:16:28;;;;;;;0.00;0.00;;;;;;;;;;5057259;28;20477;-70
2022/01/28 04:18:37;;;;;;;0.00;0.00;;;;;;;;;;5058967;28;20039;-69
2022/01/28 04:21:02;;;;;;;0.00;0.00;;;;;;;;;;5058394;28;20107;-70
2022/01/28 04:23:27;;;;;;;0.00;0.00;;;;;;;;;;5059400;28;20032;-68
2022/01/28 04:25:53;;;;;;;0.00;0.00;;;;;;;;;;5053631;28;20024;-69
2022/01/28 04:28:18;;;;;;;0.00;0.00;;;;;;;;;;5059325;28;20036;-68
2022/01/28 04:30:43;;;;;;;0.00;0.00;;;;;;;;;;5055932;28;20025;-68
2022/01/28 04:33:09;;;;;;;0.00;0.00;;;;;;;;;;5062128;28;20017;-68
2022/01/28 04:35:34;;;;;;;0.00;0.00;;;;;;;;;;5055551;28;20045;-69
2022/01/28 04:40:56;;;;;;;0.00;0.00;;;;;;;;;;5062626;28;20037;-70
2022/01/28 04:43:35;;;;;;;0.00;0.00;;;;;;;;;;5053516;28;20112;-70
2022/01/28 04:46:14;;;;;;;0.00;0.00;;;;;;;;;;5050948;28;20029;-69
2022/01/28 04:49:06;;;;;;;0.00;0.00;;;;;;;;;;5055612;28;20393;-68
2022/01/28 04:51:50;;;;;;;0.00;0.00;;;;;;;;;;5057372;28;20378;-70
2022/01/28 04:57:37;;;;;;;0.00;0.00;;;;;;;;;;5061199;28;20028;-70
2022/01/28 05:23:30;;;;;;;0.22;0.22;;;;;;;;;;5050035;28;20036;-70
2022/01/28 05:26:23;;;;;;;1.45;0.95;;;;;;;;;;5049513;28;20470;-69
2022/01/28 05:28:48;;;;;;;0.52;0.32;;;;;;;;;;5051198;28;20090;-70
2022/01/28 05:31:13;;;;;;;0.55;0.55;;;;;;;;;;5050198;28;20053;-69
2022/01/28 05:33:38;;;;;;;1.23;1.15;;;;;;;;;;5055878;28;20063;-69
2022/01/28 05:36:04;;;;;;;0.00;0.00;;;;;;;;;;5051047;28;20494;-69
2022/01/28 05:38:29;;;;;;;0.20;0.20;;;;;;;;;;5050145;28;20079;-69
2022/01/28 05:40:54;;;;;;;0.00;0.00;;;;;;;;;;5049936;28;20041;-70
2022/01/28 05:43:19;;;;;;;0.10;0.10;;;;;;;;;;5054049;28;20454;-69
2022/01/28 05:45:45;;;;;;;0.00;0.00;;;;;;;;;;5054518;28;20029;-69
2022/01/28 05:48:11;;;;;;;0.00;0.00;;;;;;;;;;5058522;28;20044;-69
2022/01/28 05:50:36;;;;;;;0.00;0.00;;;;;;;;;;5049212;28;20032;-69
2022/01/28 05:53:02;;;;;;;0.00;0.00;;;;;;;;;;5055609;28;20390;-68
2022/01/28 05:55:27;;;;;;;0.00;0.00;;;;;;;;;;5055998;28;20464;-68
2022/01/28 05:57:52;;;;;;;0.00;0.00;;;;;;;;;;5050692;28;20047;-70
2022/01/28 06:00:17;;;;;;;0.00;0.00;;;;;;;;;;5049187;28;20016;-69
2022/01/28 06:02:44;;;;;;;0.00;0.00;;;;;;;;;;5049454;28;20032;-69
2022/01/28 06:05:09;;;;;;;0.00;0.00;;;;;;;;;;5054393;28;20021;-68
2022/01/28 06:07:41;;;;;;;0.00;0.00;;;;;;;;;;5057564;28;20111;-69
2022/01/28 06:10:06;;;;;;;0.00;0.00;;;;;;;;;;5048797;28;20029;-68
2022/01/28 06:12:37;;;;;;;0.00;0.00;;;;;;;;;;5058577;28;20028;-68
2022/01/28 06:15:03;;;;;;;0.00;0.00;;;;;;;;;;5049889;28;20017;-69
2022/01/28 06:17:28;;;;;;;0.00;0.00;;;;;;;;;;5049137;28;20021;-66
2022/01/28 06:19:53;;;;;;;0.00;0.00;;;;;;;;;;5063242;28;20024;-68
2022/01/28 06:22:18;;;;;;;0.00;0.00;;;;;;;;;;5058898;28;20025;-67
2022/01/28 06:24:43;;;;;;;0.10;0.10;;;;;;;;;;5056700;28;20462;-67
2022/01/28 06:27:09;;;;;;;0.50;0.50;;;;;;;;;;5057830;28;20029;-68
2022/01/28 06:29:34;;;;;;;0.03;0.03;;;;;;;;;;5056194;28;20108;-65
2022/01/28 06:31:59;;;;;;;0.00;0.00;;;;;;;;;;5060262;28;20025;-66
2022/01/28 06:34:24;;;;;;;0.00;0.00;;;;;;;;;;5056722;28;20060;-67
2022/01/28 06:36:49;;;;;;;0.00;0.00;;;;;;;;;;5058185;28;20013;-66
2022/01/28 06:39:15;;;;;;;0.00;0.00;;;;;;;;;;5062795;28;20096;-65
2022/01/28 06:41:40;;;;;;;0.00;0.00;;;;;;;;;;5058556;28;20051;-66
2022/01/28 06:44:05;;;;;;;0.22;0.22;;;;;;;;;;5059476;28;20430;-65
2022/01/28 06:46:31;;;;;;;0.00;0.00;;;;;;;;;;5060946;28;20105;-65
2022/01/28 06:48:56;;;;;;;0.00;0.00;;;;;;;;;;5058385;28;20062;-66
2022/01/28 06:51:21;;;;;;;0.00;0.00;;;;;;;;;;5058539;28;20429;-66
2022/01/28 06:53:46;;;;;;;0.00;0.00;;;;;;;;;;5062952;28;20063;-66
2022/01/28 06:56:11;;;;;;;0.00;0.00;;;;;;;;;;5066139;28;20016;-65
2022/01/28 06:58:39;;;;;;;0.00;0.00;;;;;;;;;;5065453;28;20031;-66
2022/01/28 07:01:05;;;;;;;0.00;0.00;;;;;;;;;;5063286;28;20020;-66
2022/01/28 07:03:30;;;;;;;0.00;0.00;;;;;;;;;;5057366;28;20021;-65
2022/01/28 07:05:55;;;;;;;0.00;0.00;;;;;;;;;;5061818;28;20825;-65
2022/01/28 07:08:22;;;;;;;0.00;0.00;;;;;;;;;;5056928;28;20020;-67
2022/01/28 07:10:48;;;;;;;0.00;0.00;;;;;;;;;;5048158;28;20031;-67
2022/01/28 07:13:13;;;;;;;0.80;0.80;;;;;;;;;;5048100;28;20025;-67
2022/01/28 07:15:38;;;;;;;0.00;0.00;;;;;;;;;;5048109;28;20469;-66
2022/01/28 07:18:04;;;;;;;0.00;0.00;;;;;;;;;;5048176;28;20171;-66
2022/01/28 07:20:30;;;;;;;0.00;0.00;;;;;;;;;;5048430;28;20484;-67
2022/01/28 07:22:55;;;;;;;0.00;0.00;;;;;;;;;;5048542;28;20389;-67
2022/01/28 07:25:21;;;;;;;0.00;0.00;;;;;;;;;;5046482;28;20078;-66
2022/01/28 07:27:46;;;;;;;0.00;0.00;;;;;;;;;;5048353;28;20102;-66
2022/01/28 07:30:13;;;;;;;0.00;0.00;;;;;;;;;;5048639;28;20025;-66
2022/01/28 07:32:38;;;;;;;0.05;0.05;;;;;;;;;;5051483;28;20013;-67
2022/01/28 07:35:04;;;;;;;0.00;0.00;;;;;;;;;;5052661;28;20032;-67
2022/01/28 07:37:29;;;;;;;0.00;0.00;;;;;;;;;;5053710;28;20381;-66
2022/01/28 07:39:55;;;;;;;0.00;0.00;;;;;;;;;;5052870;28;20480;-68
2022/01/28 07:42:20;;;;;;;0.00;0.00;;;;;;;;;;5048838;28;20522;-68
2022/01/28 07:44:45;;;;;;;0.00;0.00;;;;;;;;;;5048964;28;20043;-68
2022/01/28 07:47:11;;;;;;;0.00;0.00;;;;;;;;;;5047335;28;20531;-68
2022/01/28 07:49:36;;;;;;;0.00;0.00;;;;;;;;;;5049021;28;20028;-68
2022/01/28 07:52:02;;;;;;;0.00;0.00;;;;;;;;;;5046560;28;20093;-68
2022/01/28 07:54:27;;;;;;;0.00;0.00;;;;;;;;;;5046319;28;20055;-68
2022/01/28 07:56:54;;;;;;;0.00;0.00;;;;;;;;;;5048904;28;20017;-69
2022/01/28 07:59:19;;;;;;;0.00;0.00;;;;;;;;;;5047182;28;20082;-68
2022/01/28 08:01:44;;;;;;;0.00;0.00;;;;;;;;;;5046434;28;20025;-68
2022/01/28 08:04:09;;;;;;;0.00;0.00;;;;;;;;;;5047213;28;20029;-68
2022/01/28 08:06:35;;;;;;;0.00;0.00;;;;;;;;;;5045940;28;20033;-69
2022/01/28 08:09:00;;;;;;;0.00;0.00;;;;;;;;;;5047360;28;20025;-68
2022/01/28 08:11:25;;;;;;;0.00;0.00;;;;;;;;;;5046663;28;20082;-68
2022/01/28 08:13:51;;;;;;;0.00;0.00;;;;;;;;;;5050289;28;20422;-68
2022/01/28 08:16:17;;;;;;;0.00;0.00;;;;;;;;;;5047499;28;20072;-68
2022/01/28 08:18:42;;;;;;;0.20;0.20;;;;;;;;;;5046754;28;20494;-69
2022/01/28 08:21:07;;;;;;;0.00;0.00;;;;;;;;;;5044868;28;20160;-69
2022/01/28 08:23:33;;;;;;;0.00;0.00;;;;;;;;;;5046662;28;20362;-69
2022/01/28 08:25:59;;;;;;;0.00;0.00;;;;;;;;;;5047449;28;20055;-69
2022/01/28 08:28:24;;;;;;;0.00;0.00;;;;;;;;;;5046333;28;20025;-68
2022/01/28 08:30:49;;;;;;;0.00;0.00;;;;;;;;;;5047064;28;20039;-68
2022/01/28 08:33:15;;;;;;;0.00;0.00;;;;;;;;;;5046805;28;20029;-68
2022/01/28 08:35:40;;;;;;;0.00;0.00;;;;;;;;;;5046462;28;20442;-68
2022/01/28 08:38:13;;;;;;;0.00;0.00;;;;;;;;;;5046575;28;20028;-68
2022/01/28 08:40:39;;;;;;;0.00;0.00;;;;;;;;;;5046092;28;20053;-67
2022/01/28 08:43:05;;;;;;;0.00;0.00;;;;;;;;;;5050548;28;20103;-68
2022/01/28 08:45:30;;;;;;;8.88;1.67;;;;;;;;;;5046549;28;20804;-68
2022/01/28 08:47:55;;;;;;;0.13;0.13;;;;;;;;;;5047046;28;20537;-68
2022/01/28 08:50:20;;;;;;;0.00;0.00;;;;;;;;;;5046852;28;20507;-68
2022/01/28 08:52:46;;;;;;;0.00;0.00;;;;;;;;;;5055142;28;20025;-68
2022/01/28 08:55:12;;;;;;;0.15;0.15;;;;;;;;;;5046810;28;20025;-67
2022/01/28 08:57:43;;;;;;;0.00;0.00;;;;;;;;;;5046494;28;20031;-68
2022/01/28 09:00:08;;;;;;;0.00;0.00;;;;;;;;;;5047236;28;20036;-68
2022/01/28 09:02:33;;;;;;;0.13;0.13;;;;;;;;;;5045912;28;20021;-68
2022/01/28 09:04:59;;;;;;;0.00;0.00;;;;;;;;;;5054908;28;20075;-68
2022/01/28 09:07:24;;;;;;;0.00;0.00;;;;;;;;;;5046385;28;20033;-68
2022/01/28 09:09:52;;;;;;;0.00;0.00;;;;;;;;;;5047045;28;20036;-68
2022/01/28 09:15:12;;;;;;;0.10;0.10;;;;;;;;;;5036981;28;20035;-67
2022/01/28 09:17:37;;;;;;;0.52;0.35;;;;;;;;;;5057617;28;20029;-66
2022/01/28 09:20:02;;;;;;;0.47;0.47;;;;;;;;;;5050336;28;20029;-69
2022/01/28 09:22:28;;;;;;;0.00;0.00;;;;;;;;;;5049987;28;20033;-66
2022/01/28 09:24:53;;;;;;;0.00;0.00;;;;;;;;;;5050530;28;20029;-66
2022/01/28 09:27:19;;;;;;;0.10;0.10;;;;;;;;;;5052480;28;20031;-66
2022/01/28 09:29:44;;;;;;;0.00;0.00;;;;;;;;;;5052498;28;20021;-68
2022/01/28 09:32:09;;;;;;;0.00;0.00;;;;;;;;;;5051361;28;20026;-67
2022/01/28 09:34:34;;;;;;;0.22;0.22;;;;;;;;;;5049957;28;20320;-67
2022/01/28 09:37:00;;;;;;;0.00;0.00;;;;;;;;;;5049258;28;20074;-67
2022/01/28 09:39:25;;;;;;;0.00;0.00;;;;;;;;;;5049088;28;20044;-67
2022/01/28 09:41:52;;;;;;;0.00;0.00;;;;;;;;;;5048436;28;20041;-67
2022/01/28 09:44:18;;;;;;;0.00;0.00;;;;;;;;;;5050637;28;20020;-68
2022/01/28 09:46:43;;;;;;;0.00;0.00;;;;;;;;;;5049582;28;20457;-67
2022/01/28 09:49:10;;;;;;;0.00;0.00;;;;;;;;;;5049554;28;20029;-68
2022/01/28 09:51:35;;;;;;;0.00;0.00;;;;;;;;;;5048936;28;21713;-68
2022/01/28 09:54:01;;;;;;;0.00;0.00;;;;;;;;;;5051049;28;20032;-68
2022/01/28 09:56:28;;;;;;;1.95;1.95;;;;;;;;;;5049086;28;20033;-68
2022/01/28 09:58:53;;;;;;;0.10;0.10;;;;;;;;;;5050723;28;20449;-65
2022/01/28 10:01:19;;;;;;;0.00;0.00;;;;;;;;;;5053091;28;20025;-67
2022/01/28 10:03:44;;;;;;;0.00;0.00;;;;;;;;;;5048275;28;20017;-67
2022/01/28 10:06:09;;;;;;;0.93;0.93;;;;;;;;;;5049603;28;20064;-67
2022/01/28 10:08:36;;;;;;;0.10;0.10;;;;;;;;;;5048907;28;20036;-66
2022/01/28 10:11:05;;;;;;;0.00;0.00;;;;;;;;;;5054238;28;20021;-67
2022/01/28 10:13:46;;;;;;;0.00;0.00;;;;;;;;;;5061124;28;20092;-67
2022/01/28 10:16:16;;;;;;;0.00;0.00;;;;;;;;;;5053847;28;20021;-67
2022/01/28 10:18:42;;;;;;;;;;;;;;;;;;5049613;28;20351;-67
2022/01/28 10:21:25;;;;;;;1.77;1.67;;;;;;;;;;5053369;28;19912;-68
2022/01/28 10:23:59;;;;;;;0.00;0.00;;;;;;;;;;5056593;28;20027;-67
2022/01/28 10:26:29;;;;;;;0.00;0.00;;;;;;;;;;5059050;28;20048;-67
2022/01/28 10:28:54;;;;;;;0.00;0.00;;;;;;;;;;5058715;28;20025;-68
2022/01/28 10:31:19;;;;;;;1.67;1.58;;;;;;;;;;5056366;28;20441;-68
2022/01/28 10:33:45;;;;;;;0.00;0.00;;;;;;;;;;5065729;28;20524;-67
2022/01/28 10:36:10;;;;;;;0.00;0.00;;;;;;;;;;5049977;28;20023;-68
2022/01/28 10:38:36;;;;;;;0.03;0.03;;;;;;;;;;5047983;28;20090;-67
2022/01/28 10:41:15;;;;;;;0.00;0.00;;;;;;;;;;5048452;28;20059;-68
2022/01/28 10:43:44;;;;;;;0.00;0.00;;;;;;;;;;5046242;28;20084;-67
2022/01/28 10:46:10;;;;;;;;;;;;;;;;;;5048500;28;20466;-67
2022/01/28 10:48:52;;;;;;;0.00;0.00;;;;;;;;;;5035218;28;19920;-67
2022/01/28 10:51:18;;;;;;;0.00;0.00;;;;;;;;;;5048587;28;20619;-68
2022/01/28 10:54:01;;;;;;;0.00;0.00;;;;;;;;;;5048313;28;20013;-67
2022/01/28 10:56:26;;;;;;;0.00;0.00;;;;;;;;;;5052866;28;20048;-67
2022/01/28 10:58:51;;;;;;;0.00;0.00;;;;;;;;;;5049419;28;20025;-66
2022/01/28 11:01:17;;;;;;;0.00;0.00;;;;;;;;;;5053684;28;20032;-65
2022/01/28 11:03:42;;;;;;;0.00;0.00;;;;;;;;;;5054393;28;20395;-67
2022/01/28 11:06:07;;;;;;;0.00;0.00;;;;;;;;;;5056022;28;20053;-63
2022/01/28 11:08:34;;;;;;;0.40;0.40;;;;;;;;;;5054103;28;20074;-63
2022/01/28 11:11:00;;;;;;;0.25;0.25;;;;;;;;;;5051585;28;20017;-64
2022/01/28 11:13:26;;;;;;;0.00;0.00;;;;;;;;;;5056730;28;20087;-64
2022/01/28 11:15:51;;;;;;;1.30;0.68;;;;;;;;;;5047988;28;20021;-64
2022/01/28 11:18:17;;;;;;;0.00;0.00;;;;;;;;;;5053190;28;20039;-64
2022/01/28 11:20:49;;;;;;;0.57;0.15;;;;;;;;;;5048871;28;20457;-64
2022/01/28 11:23:33;;;;;;;0.25;0.25;;;;;;;;;;5047163;28;20029;-64
2022/01/28 11:26:17;;;;;;;0.00;0.00;;;;;;;;;;5057084;28;20027;-64
2022/01/28 11:28:56;;;;;;;0.15;0.15;;;;;;;;;;5052255;28;20075;-63
2022/01/28 11:31:39;;;;;;;0.00;0.00;;;;;;;;;;5057003;28;20017;-64
2022/01/28 11:34:14;;;;;;;0.28;0.28;;;;;;;;;;5049212;28;20028;-65
2022/01/28 11:36:39;;;;;;;0.10;0.10;;;;;;;;;;5048373;28;20013;-66
2022/01/28 11:39:08;;;;;;;0.30;0.30;;;;;;;;;;5050110;28;20044;-65
2022/01/28 11:41:33;;;;;;;;;;;;;;;;;;5046116;28;20132;-66
2022/01/28 11:43:59;;;;;;;0.00;0.00;;;;;;;;;;5046746;28;19909;-66
2022/01/28 11:46:39;;;;;;;0.00;0.00;;;;;;;;;;5047565;28;20040;-66
2022/01/28 11:49:07;;;;;;;0.00;0.00;;;;;;;;;;5044663;28;20096;-66
2022/01/28 11:51:32;;;;;;;0.43;0.33;;;;;;;;;;5048606;28;20028;-65
2022/01/28 11:53:59;;;;;;;3.30;1.75;;;;;;;;;;5046633;28;20021;-65
2022/01/28 11:56:25;;;;;;;0.00;0.00;;;;;;;;;;5052591;28;20013;-66
2022/01/28 11:58:56;;;;;;;0.10;0.10;;;;;;;;;;5047080;28;20430;-66
2022/01/28 12:01:45;;;;;;;3.00;0.40;;;;;;;;;;5047330;28;20096;-66
2022/01/28 12:04:26;;;;;;;0.10;0.10;;;;;;;;;;5027623;28;20086;-66
2022/01/28 12:06:54;;;;;;;0.47;0.30;;;;;;;;;;5046398;28;20040;-65
2022/01/28 12:09:19;;;;;;;0.00;0.00;;;;;;;;;;5045907;28;20017;-66
2022/01/28 12:11:44;;;;;;;0.13;0.08;;;;;;;;;;5046880;28;20120;-66
2022/01/28 12:14:13;;;;;;;0.00;0.00;;;;;;;;;;5046340;28;20430;-65
2022/01/28 12:16:42;;;;;;;0.20;0.20;;;;;;;;;;5046614;28;20468;-66
2022/01/28 12:19:20;;;;;;;2.03;1.58;;;;;;;;;;5047230;28;20033;-65
2022/01/28 12:22:04;;;;;;;0.00;0.00;;;;;;;;;;5046458;28;20108;-66
2022/01/28 12:24:31;;;;;;;1.45;1.30;;;;;;;;;;5045998;28;20053;-65
2022/01/28 12:27:05;;;;;;;0.10;0.10;;;;;;;;;;5046143;28;20028;-66
2022/01/28 12:29:41;;;;;;;0.55;0.52;;;;;;;;;;5046716;28;20339;-65
2022/01/28 12:32:07;;;;;;;0.00;0.00;;;;;;;;;;5045844;28;20097;-65
2022/01/28 12:34:32;;;;;;;1.55;0.43;;;;;;;;;;5047812;28;20116;-66
2022/01/28 12:36:58;;;;;;;0.00;0.00;;;;;;;;;;5044810;28;20458;-66
2022/01/28 12:39:36;;;;;;;0.13;0.13;;;;;;;;;;5046446;28;20395;-65
2022/01/28 12:42:08;;;;;;;0.00;0.00;;;;;;;;;;5048567;28;20036;-66
2022/01/28 12:44:34;;;;;;;0.03;0.03;;;;;;;;;;5053047;28;20025;-67
2022/01/28 12:47:03;;;;;;;0.00;0.00;;;;;;;;;;5049687;28;20926;-65
2022/01/28 12:49:29;;;;;;;0.00;0.00;;;;;;;;;;5042126;28;20041;-66
2022/01/28 12:51:56;;;;;;;0.08;0.08;;;;;;;;;;5050110;28;20028;-66
2022/01/28 12:54:28;;;;;;;3.03;0.47;;;;;;;;;;5048734;28;20019;-66
2022/01/28 12:56:53;;;;;;;0.00;0.00;;;;;;;;;;5049392;28;20075;-64
2022/01/28 12:59:19;;;;;;;0.00;0.00;;;;;;;;;;5050828;28;20453;-66
2022/01/28 13:01:50;;;;;;;0.00;0.00;;;;;;;;;;5050545;28;20025;-66
2022/01/28 13:04:19;;;;;;;0.00;0.00;;;;;;;;;;5050585;28;20021;-66
2022/01/28 13:09:17;;;;;;;0.35;0.28;;;;;;;;;;5049324;28;20033;-65
2022/01/28 13:11:47;;;;;;;0.35;0.35;;;;;;;;;;5051301;28;20025;-65
2022/01/28 13:14:12;;;;;;;;;;;;;;;;;;5050695;28;20025;-65
2022/01/28 13:16:38;;;;;;;0.00;0.00;;;;;;;;;;5050142;28;20003;-65
2022/01/28 13:19:04;;;;;;;0.00;0.00;;;;;;;;;;5052735;28;20379;-65
2022/01/28 13:21:30;;;;;;;0.08;0.08;;;;;;;;;;5050485;28;20021;-65
2022/01/28 13:24:05;;;;;;;0.00;0.00;;;;;;;;;;5048725;28;20028;-66
2022/01/28 13:26:30;;;;;;;0.00;0.00;;;;;;;;;;5050455;28;20100;-66
2022/01/28 13:29:09;;;;;;;1.25;1.00;;;;;;;;;;5053341;28;20074;-67
2022/01/28 13:31:34;;;;;;;3.63;0.45;;;;;;;;;;5048885;28;20460;-65
2022/01/28 13:34:00;;;;;;;0.17;0.17;;;;;;;;;;5050071;28;20096;-65
2022/01/28 13:36:25;;;;;;;1.35;1.35;;;;;;;;;;5052946;28;20078;-64
2022/01/28 13:38:51;;;;;;;0.00;0.00;;;;;;;;;;5050490;28;20440;-65
2022/01/28 13:41:24;;;;;;;0.10;0.10;;;;;;;;;;5047682;28;20139;-65
2022/01/28 13:43:50;;;;;;;0.00;0.00;;;;;;;;;;5047575;28;20048;-65
2022/01/28 13:46:15;;;;;;;0.68;0.25;;;;;;;;;;5050794;28;20024;-66
2022/01/28 13:48:41;;;;;;;0.00;0.00;;;;;;;;;;5055932;28;20437;-65
2022/01/28 13:51:16;;;;;;;0.65;0.65;;;;;;;;;;5049310;28;21721;-65
2022/01/28 13:56:55;;;;;;;0.00;0.00;;;;;;;;;;5056555;28;20023;-66
2022/01/28 13:59:24;;;;;;;0.00;0.00;;;;;;;;;;5044775;28;20438;-66
2022/01/28 14:01:50;;;;;;;0.00;0.00;;;;;;;;;;5051907;28;20027;-66
2022/01/28 14:04:23;;;;;;;0.00;0.00;;;;;;;;;;5048448;28;20025;-66
2022/01/28 14:06:48;;;;;;;0.00;0.00;;;;;;;;;;5023611;28;20107;-65
2022/01/28 14:09:17;;;;;;;0.00;0.00;;;;;;;;;;5048331;28;20537;-64
2022/01/28 14:11:45;;;;;;;0.00;0.00;;;;;;;;;;5049263;28;20021;-67
2022/01/28 14:14:17;;;;;;;0.00;0.00;;;;;;;;;;5046591;28;20916;-67
2022/01/28 14:16:45;;;;;;;0.00;0.00;;;;;;;;;;5048728;28;20035;-66
2022/01/28 14:19:10;;;;;;;0.00;0.00;;;;;;;;;;5029823;28;20048;-67
2022/01/28 14:21:37;;;;;;;0.13;0.13;;;;;;;;;;5048365;28;20033;-64
2022/01/28 14:24:02;;;;;;;7.82;1.77;;;;;;;;;;5048678;28;20047;-66
2022/01/28 14:26:28;;;;;;;0.38;0.13;;;;;;;;;;5048340;28;20521;-65
2022/01/28 14:29:49;;;;;;;1.67;0.22;;;;;;;;;;5057994;28;20029;-65
2022/01/28 14:31:38;;;;;;;1.15;0.52;;;;;;;;;;5043372;28;20029;-65
2022/01/28 14:34:03;;;;;;;0.55;0.55;;;;;;;;;;5052732;28;20063;-66
2022/01/28 14:36:29;;;;;;;0.00;0.00;;;;;;;;;;5051358;28;20036;-66
2022/01/28 14:38:55;;;;;;;0.00;0.00;;;;;;;;;;5045213;28;20377;-66
2022/01/28 14:41:20;;;;;;;0.00;0.00;;;;;;;;;;5059177;28;20361;-65
2022/01/28 14:43:45;;;;;;;0.00;0.00;;;;;;;;;;5052086;28;20535;-66
2022/01/28 14:46:11;;;;;;;0.10;0.10;;;;;;;;;;5049798;28;20028;-65
2022/01/28 14:48:36;;;;;;;0.32;0.30;;;;;;;;;;5047169;28;20051;-64
2022/01/28 14:51:01;;;;;;;0.08;0.08;;;;;;;;;;5048175;28;20067;-65
2022/01/28 14:53:27;;;;;;;0.00;0.00;;;;;;;;;;5047458;28;20385;-66
2022/01/28 14:55:52;;;;;;;0.00;0.00;;;;;;;;;;5046711;28;20025;-65
2022/01/28 14:58:17;;;;;;;0.00;0.00;;;;;;;;;;5046399;28;20024;-67
2022/01/28 15:00:42;;;;;;;1.35;1.35;;;;;;;;;;5047113;28;20495;-64
2022/01/28 15:03:10;;;;;;;1.35;0.13;;;;;;;;;;5030653;28;20032;-64
2022/01/28 15:05:36;;;;;;;0.25;0.25;;;;;;;;;;5047979;28;20044;-64
2022/01/28 15:08:07;;;;;;;0.00;0.00;;;;;;;;;;5045408;28;20143;-64
2022/01/28 15:10:32;;;;;;;0.08;0.08;;;;;;;;;;5047502;28;20055;-65
2022/01/28 15:12:57;;;;;;;1.77;1.67;;;;;;;;;;5054205;28;20039;-64
2022/01/28 15:15:22;;;;;;;0.20;0.20;;;;;;;;;;5052248;28;20485;-65
2022/01/28 15:17:48;;;;;;;1.10;0.60;;;;;;;;;;5030387;28;20052;-65
2022/01/28 15:20:13;;;;;;;0.20;0.20;;;;;;;;;;5048401;28;20029;-65
2022/01/28 15:22:38;;;;;;;0.00;0.00;;;;;;;;;;5046671;28;20548;-64
2022/01/28 15:25:04;;;;;;;0.00;0.00;;;;;;;;;;5044866;28;20039;-65
2022/01/28 15:27:32;;;;;;;5.93;0.30;;;;;;;;;;5048250;28;20641;-65
2022/01/28 15:30:02;;;;;;;0.00;0.00;;;;;;;;;;5046160;28;20067;-65
2022/01/28 15:37:45;;;;;;;0.00;0.00;;;;;;;;;;5047197;28;20374;-64
2022/01/28 15:40:11;;;;;;;0.00;0.00;;;;;;;;;;5047906;28;20053;-65
2022/01/28 15:42:36;;;;;;;0.00;0.00;;;;;;;;;;5048384;28;20036;-66
2022/01/28 15:45:02;;;;;;;10.63;3.63;;;;;;;;;;5046877;28;20029;-66
2022/01/28 15:47:27;;;;;;;0.00;0.00;;;;;;;;;;5029425;28;20454;-65
2022/01/28 15:49:52;;;;;;;1.30;0.22;;;;;;;;;;5046999;28;20041;-65
2022/01/28 15:52:17;;;;;;;0.00;0.00;;;;;;;;;;5047332;28;20033;-65
2022/01/28 15:54:44;;;;;;;0.00;0.00;;;;;;;;;;5047119;28;20069;-65
2022/01/28 15:57:09;;;;;;;0.00;0.00;;;;;;;;;;5047190;28;20024;-65
2022/01/28 15:59:34;;;;;;;1.02;1.02;;;;;;;;;;5047284;28;20373;-65
2022/01/28 16:02:00;;;;;;;0.00;0.00;;;;;;;;;;5050327;28;20077;-66
2022/01/28 16:04:25;;;;;;;0.00;0.00;;;;;;;;;;5047138;28;20041;-65
2022/01/28 16:06:51;;;;;;;0.00;0.00;;;;;;;;;;5046139;28;20036;-66
2022/01/28 16:09:17;;;;;;;0.00;0.00;;;;;;;;;;5046964;28;20029;-64
2022/01/28 16:11:50;;;;;;;0.00;0.00;;;;;;;;;;5047827;28;20017;-66
2022/01/28 16:14:27;;;;;;;0.00;0.00;;;;;;;;;;5047332;28;20021;-65
2022/01/28 16:19:37;;;;;;;0.00;0.00;;;;;;;;;;5048918;28;20082;-64
2022/01/28 16:22:03;;;;;;;0.00;0.00;;;;;;;;;;5049524;28;20036;-65